sensor_id;sensor_type;location;lat;lon;timestamp;P1;durP1;ratioP1;P2;durP2;ratioP2
71965;SDS011;59836;52.132;5.442;2022-10-17T00:01:58;6.80;;;4.47;;
71965;SDS011;59836;52.132;5.442;2022-10-17T00:04:24;6.70;;;4.25;;
71965;SDS011;59836;52.132;5.442;2022-10-17T00:06:54;5.57;;;4.32;;
71965;SDS011;59836;52.132;5.442;2022-10-17T00:09:21;5.45;;;4.57;;
71965;SDS011;59836;52.132;5.442;2022-10-17T00:11:47;4.43;;;3.55;;
71965;SDS011;59836;52.132;5.442;2022-10-17T00:14:18;5.33;;;4.13;;
71965;SDS011;59836;52.132;5.442;2022-10-17T00:16:44;8.30;;;4.68;;
71965;SDS011;59836;52.132;5.442;2022-10-17T00:19:11;5.38;;;4.30;;
71965;SDS011;59836;52.132;5.442;2022-10-17T00:21:37;5.72;;;4.10;;
71965;SDS011;59836;52.132;5.442;2022-10-17T00:34:45;6.35;;;3.83;;
71965;SDS011;59836;52.132;5.442;2022-10-17T00:37:12;6.07;;;4.57;;
71965;SDS011;59836;52.132;5.442;2022-10-17T00:39:39;6.30;;;4.45;;
71965;SDS011;59836;52.132;5.442;2022-10-17T00:42:11;6.80;;;4.60;;
71965;SDS011;59836;52.132;5.442;2022-10-17T00:49:59;6.57;;;4.15;;
71965;SDS011;59836;52.132;5.442;2022-10-17T00:52:27;6.70;;;4.72;;
71965;SDS011;59836;52.132;5.442;2022-10-17T00:54:57;7.33;;;4.93;;
71965;SDS011;59836;52.132;5.442;2022-10-17T00:57:29;7.28;;;4.38;;
71965;SDS011;59836;52.132;5.442;2022-10-17T00:59:58;5.85;;;4.50;;
71965;SDS011;59836;52.132;5.442;2022-10-17T01:02:27;7.38;;;5.00;;
71965;SDS011;59836;52.132;5.442;2022-10-17T01:04:54;6.72;;;5.45;;
71965;SDS011;59836;52.132;5.442;2022-10-17T01:07:21;8.07;;;5.10;;
71965;SDS011;59836;52.132;5.442;2022-10-17T01:09:48;7.47;;;5.00;;
71965;SDS011;59836;52.132;5.442;2022-10-17T01:17:34;6.07;;;4.40;;
71965;SDS011;59836;52.132;5.442;2022-10-17T01:23:55;8.35;;;5.70;;
71965;SDS011;59836;52.132;5.442;2022-10-17T01:26:58;6.43;;;5.40;;
71965;SDS011;59836;52.132;5.442;2022-10-17T01:29:51;7.18;;;4.47;;
71965;SDS011;59836;52.132;5.442;2022-10-17T01:32:48;6.60;;;4.70;;
71965;SDS011;59836;52.132;5.442;2022-10-17T01:35:26;6.77;;;4.90;;
71965;SDS011;59836;52.132;5.442;2022-10-17T01:38:00;7.65;;;5.63;;
71965;SDS011;59836;52.132;5.442;2022-10-17T01:40:51;9.55;;;5.00;;
71965;SDS011;59836;52.132;5.442;2022-10-17T01:43:38;9.25;;;5.35;;
71965;SDS011;59836;52.132;5.442;2022-10-17T01:46:15;8.02;;;5.00;;
71965;SDS011;59836;52.132;5.442;2022-10-17T01:51:34;7.40;;;5.40;;
71965;SDS011;59836;52.132;5.442;2022-10-17T01:54:08;7.22;;;5.50;;
71965;SDS011;59836;52.132;5.442;2022-10-17T01:59:26;6.22;;;5.07;;
71965;SDS011;59836;52.132;5.442;2022-10-17T02:01:57;6.87;;;5.37;;
71965;SDS011;59836;52.132;5.442;2022-10-17T02:04:24;5.35;;;4.65;;
71965;SDS011;59836;52.132;5.442;2022-10-17T02:06:51;7.63;;;5.25;;
71965;SDS011;59836;52.132;5.442;2022-10-17T02:09:21;10.27;;;5.55;;
71965;SDS011;59836;52.132;5.442;2022-10-17T02:24:06;7.82;;;4.82;;
71965;SDS011;59836;52.132;5.442;2022-10-17T02:29:32;6.73;;;5.03;;
71965;SDS011;59836;52.132;5.442;2022-10-17T02:37:16;7.30;;;5.50;;
71965;SDS011;59836;52.132;5.442;2022-10-17T02:39:48;8.20;;;5.28;;
71965;SDS011;59836;52.132;5.442;2022-10-17T02:42:16;6.63;;;5.10;;
71965;SDS011;59836;52.132;5.442;2022-10-17T02:44:43;7.15;;;5.57;;
71965;SDS011;59836;52.132;5.442;2022-10-17T02:47:15;9.30;;;5.68;;
71965;SDS011;59836;52.132;5.442;2022-10-17T02:49:57;7.60;;;5.28;;
71965;SDS011;59836;52.132;5.442;2022-10-17T02:52:42;7.38;;;5.70;;
71965;SDS011;59836;52.132;5.442;2022-10-17T02:55:19;7.73;;;5.30;;
71965;SDS011;59836;52.132;5.442;2022-10-17T02:57:56;10.52;;;6.03;;
71965;SDS011;59836;52.132;5.442;2022-10-17T03:00:27;7.82;;;6.03;;
71965;SDS011;59836;52.132;5.442;2022-10-17T03:02:54;9.45;;;6.20;;
71965;SDS011;59836;52.132;5.442;2022-10-17T03:05:31;6.68;;;5.32;;
71965;SDS011;59836;52.132;5.442;2022-10-17T03:07:57;7.60;;;5.70;;
71965;SDS011;59836;52.132;5.442;2022-10-17T03:10:24;7.90;;;6.32;;
71965;SDS011;59836;52.132;5.442;2022-10-17T03:12:58;8.68;;;5.72;;
71965;SDS011;59836;52.132;5.442;2022-10-17T03:15:42;9.98;;;5.82;;
71965;SDS011;59836;52.132;5.442;2022-10-17T03:20:44;9.00;;;6.27;;
71965;SDS011;59836;52.132;5.442;2022-10-17T03:23:10;8.27;;;6.03;;
71965;SDS011;59836;52.132;5.442;2022-10-17T03:25:36;8.70;;;5.85;;
71965;SDS011;59836;52.132;5.442;2022-10-17T03:28:03;10.10;;;6.50;;
71965;SDS011;59836;52.132;5.442;2022-10-17T03:30:30;6.40;;;5.07;;
71965;SDS011;59836;52.132;5.442;2022-10-17T03:32:57;8.50;;;5.60;;
71965;SDS011;59836;52.132;5.442;2022-10-17T03:35:25;8.15;;;6.28;;
71965;SDS011;59836;52.132;5.442;2022-10-17T03:37:54;8.55;;;5.93;;
71965;SDS011;59836;52.132;5.442;2022-10-17T03:40:21;9.15;;;5.50;;
71965;SDS011;59836;52.132;5.442;2022-10-17T03:42:50;12.38;;;6.35;;
71965;SDS011;59836;52.132;5.442;2022-10-17T03:45:29;7.60;;;5.87;;
71965;SDS011;59836;52.132;5.442;2022-10-17T03:47:57;7.55;;;5.05;;
71965;SDS011;59836;52.132;5.442;2022-10-17T03:53:29;10.38;;;5.82;;
71965;SDS011;59836;52.132;5.442;2022-10-17T03:59:17;7.90;;;5.83;;
71965;SDS011;59836;52.132;5.442;2022-10-17T04:01:43;8.07;;;5.45;;
71965;SDS011;59836;52.132;5.442;2022-10-17T04:04:10;7.97;;;5.47;;
71965;SDS011;59836;52.132;5.442;2022-10-17T04:06:36;6.43;;;5.15;;
71965;SDS011;59836;52.132;5.442;2022-10-17T04:09:05;7.00;;;5.65;;
71965;SDS011;59836;52.132;5.442;2022-10-17T04:11:32;7.47;;;5.33;;
71965;SDS011;59836;52.132;5.442;2022-10-17T04:13:59;8.85;;;5.43;;
71965;SDS011;59836;52.132;5.442;2022-10-17T04:16:25;8.65;;;5.90;;
71965;SDS011;59836;52.132;5.442;2022-10-17T04:18:55;8.18;;;5.30;;
71965;SDS011;59836;52.132;5.442;2022-10-17T04:21:23;7.63;;;5.05;;
71965;SDS011;59836;52.132;5.442;2022-10-17T04:23:52;7.13;;;4.53;;
71965;SDS011;59836;52.132;5.442;2022-10-17T04:26:22;9.00;;;5.35;;
71965;SDS011;59836;52.132;5.442;2022-10-17T04:28:52;8.40;;;5.28;;
71965;SDS011;59836;52.132;5.442;2022-10-17T04:31:22;7.57;;;5.40;;
71965;SDS011;59836;52.132;5.442;2022-10-17T04:33:49;8.55;;;5.85;;
71965;SDS011;59836;52.132;5.442;2022-10-17T04:36:16;7.00;;;5.43;;
71965;SDS011;59836;52.132;5.442;2022-10-17T04:38:51;10.70;;;5.93;;
71965;SDS011;59836;52.132;5.442;2022-10-17T04:44:01;9.10;;;6.07;;
71965;SDS011;59836;52.132;5.442;2022-10-17T04:46:27;7.15;;;5.30;;
71965;SDS011;59836;52.132;5.442;2022-10-17T04:48:54;7.70;;;5.67;;
71965;SDS011;59836;52.132;5.442;2022-10-17T04:51:37;7.97;;;5.45;;
71965;SDS011;59836;52.132;5.442;2022-10-17T04:54:09;8.57;;;5.32;;
71965;SDS011;59836;52.132;5.442;2022-10-17T04:56:35;10.68;;;5.30;;
71965;SDS011;59836;52.132;5.442;2022-10-17T04:59:02;9.38;;;5.30;;
71965;SDS011;59836;52.132;5.442;2022-10-17T05:04:02;8.45;;;5.80;;
71965;SDS011;59836;52.132;5.442;2022-10-17T05:06:29;9.63;;;5.32;;
71965;SDS011;59836;52.132;5.442;2022-10-17T05:08:56;11.80;;;5.72;;
71965;SDS011;59836;52.132;5.442;2022-10-17T05:11:26;8.00;;;5.25;;
71965;SDS011;59836;52.132;5.442;2022-10-17T05:13:55;12.20;;;5.03;;
71965;SDS011;59836;52.132;5.442;2022-10-17T05:19:21;7.40;;;5.25;;
71965;SDS011;59836;52.132;5.442;2022-10-17T05:24:42;8.55;;;5.82;;
71965;SDS011;59836;52.132;5.442;2022-10-17T05:36:00;7.88;;;5.28;;
71965;SDS011;59836;52.132;5.442;2022-10-17T05:41:00;6.40;;;5.10;;
71965;SDS011;59836;52.132;5.442;2022-10-17T05:43:29;8.25;;;5.80;;
71965;SDS011;59836;52.132;5.442;2022-10-17T05:45:57;7.32;;;5.30;;
71965;SDS011;59836;52.132;5.442;2022-10-17T05:48:23;8.38;;;5.20;;
71965;SDS011;59836;52.132;5.442;2022-10-17T05:51:07;7.90;;;5.10;;
71965;SDS011;59836;52.132;5.442;2022-10-17T05:53:39;8.83;;;5.43;;
71965;SDS011;59836;52.132;5.442;2022-10-17T05:56:13;8.98;;;5.93;;
71965;SDS011;59836;52.132;5.442;2022-10-17T05:58:50;9.45;;;5.45;;
71965;SDS011;59836;52.132;5.442;2022-10-17T06:01:23;7.95;;;5.20;;
71965;SDS011;59836;52.132;5.442;2022-10-17T06:03:49;11.55;;;5.57;;
71965;SDS011;59836;52.132;5.442;2022-10-17T06:06:16;9.50;;;5.70;;
71965;SDS011;59836;52.132;5.442;2022-10-17T06:08:50;9.10;;;5.13;;
71965;SDS011;59836;52.132;5.442;2022-10-17T06:11:23;9.45;;;5.72;;
71965;SDS011;59836;52.132;5.442;2022-10-17T06:13:50;9.95;;;5.53;;
71965;SDS011;59836;52.132;5.442;2022-10-17T06:16:17;9.90;;;5.68;;
71965;SDS011;59836;52.132;5.442;2022-10-17T06:18:43;6.80;;;4.90;;
71965;SDS011;59836;52.132;5.442;2022-10-17T06:21:10;10.77;;;5.07;;
71965;SDS011;59836;52.132;5.442;2022-10-17T06:23:39;8.10;;;5.65;;
71965;SDS011;59836;52.132;5.442;2022-10-17T06:26:06;7.47;;;5.57;;
71965;SDS011;59836;52.132;5.442;2022-10-17T06:28:33;7.28;;;5.18;;
71965;SDS011;59836;52.132;5.442;2022-10-17T06:31:09;10.00;;;5.60;;
71965;SDS011;59836;52.132;5.442;2022-10-17T06:33:37;7.03;;;5.25;;
71965;SDS011;59836;52.132;5.442;2022-10-17T06:36:04;10.65;;;5.70;;
71965;SDS011;59836;52.132;5.442;2022-10-17T06:38:32;9.00;;;5.13;;
71965;SDS011;59836;52.132;5.442;2022-10-17T06:41:10;9.60;;;5.15;;
71965;SDS011;59836;52.132;5.442;2022-10-17T06:43:40;6.63;;;5.20;;
71965;SDS011;59836;52.132;5.442;2022-10-17T06:46:17;10.93;;;6.30;;
71965;SDS011;59836;52.132;5.442;2022-10-17T06:48:44;6.57;;;5.03;;
71965;SDS011;59836;52.132;5.442;2022-10-17T06:51:18;7.40;;;5.28;;
71965;SDS011;59836;52.132;5.442;2022-10-17T06:53:44;10.07;;;5.78;;
71965;SDS011;59836;52.132;5.442;2022-10-17T06:56:11;7.63;;;4.93;;
71965;SDS011;59836;52.132;5.442;2022-10-17T06:58:37;7.43;;;5.00;;
71965;SDS011;59836;52.132;5.442;2022-10-17T07:01:09;8.52;;;5.68;;
71965;SDS011;59836;52.132;5.442;2022-10-17T07:03:37;9.95;;;5.57;;
71965;SDS011;59836;52.132;5.442;2022-10-17T07:06:05;8.85;;;5.32;;
71965;SDS011;59836;52.132;5.442;2022-10-17T07:08:31;7.53;;;5.33;;
71965;SDS011;59836;52.132;5.442;2022-10-17T07:10:58;7.35;;;5.00;;
71965;SDS011;59836;52.132;5.442;2022-10-17T07:13:24;8.02;;;5.50;;
71965;SDS011;59836;52.132;5.442;2022-10-17T07:15:51;7.95;;;5.28;;
71965;SDS011;59836;52.132;5.442;2022-10-17T07:18:17;6.15;;;5.00;;
71965;SDS011;59836;52.132;5.442;2022-10-17T07:20:51;6.87;;;4.80;;
71965;SDS011;59836;52.132;5.442;2022-10-17T07:23:18;9.45;;;5.10;;
71965;SDS011;59836;52.132;5.442;2022-10-17T07:25:45;8.43;;;5.18;;
71965;SDS011;59836;52.132;5.442;2022-10-17T07:28:12;7.30;;;5.20;;
71965;SDS011;59836;52.132;5.442;2022-10-17T07:30:39;9.00;;;4.97;;
71965;SDS011;59836;52.132;5.442;2022-10-17T07:33:06;9.00;;;6.03;;
71965;SDS011;59836;52.132;5.442;2022-10-17T07:35:33;8.00;;;5.47;;
71965;SDS011;59836;52.132;5.442;2022-10-17T07:37:59;9.27;;;5.03;;
71965;SDS011;59836;52.132;5.442;2022-10-17T07:40:26;7.05;;;5.32;;
71965;SDS011;59836;52.132;5.442;2022-10-17T07:42:52;7.10;;;5.75;;
71965;SDS011;59836;52.132;5.442;2022-10-17T07:45:20;10.10;;;5.03;;
71965;SDS011;59836;52.132;5.442;2022-10-17T07:47:48;9.50;;;6.50;;
71965;SDS011;59836;52.132;5.442;2022-10-17T07:50:15;9.07;;;5.80;;
71965;SDS011;59836;52.132;5.442;2022-10-17T07:52:41;6.75;;;5.40;;
71965;SDS011;59836;52.132;5.442;2022-10-17T07:55:08;8.57;;;5.68;;
71965;SDS011;59836;52.132;5.442;2022-10-17T07:57:35;7.30;;;5.07;;
71965;SDS011;59836;52.132;5.442;2022-10-17T08:00:01;5.93;;;4.40;;
71965;SDS011;59836;52.132;5.442;2022-10-17T08:02:28;8.02;;;4.60;;
71965;SDS011;59836;52.132;5.442;2022-10-17T08:04:54;8.32;;;5.22;;
71965;SDS011;59836;52.132;5.442;2022-10-17T08:07:21;7.00;;;4.75;;
71965;SDS011;59836;52.132;5.442;2022-10-17T08:09:53;9.27;;;5.87;;
71965;SDS011;59836;52.132;5.442;2022-10-17T08:12:20;9.95;;;5.90;;
71965;SDS011;59836;52.132;5.442;2022-10-17T08:14:47;11.57;;;6.57;;
71965;SDS011;59836;52.132;5.442;2022-10-17T08:17:13;9.43;;;5.97;;
71965;SDS011;59836;52.132;5.442;2022-10-17T08:19:39;7.60;;;5.03;;
71965;SDS011;59836;52.132;5.442;2022-10-17T08:22:06;7.27;;;5.37;;
71965;SDS011;59836;52.132;5.442;2022-10-17T08:24:33;12.82;;;5.47;;
71965;SDS011;59836;52.132;5.442;2022-10-17T08:27:00;7.13;;;5.07;;
71965;SDS011;59836;52.132;5.442;2022-10-17T08:29:26;10.18;;;5.30;;
71965;SDS011;59836;52.132;5.442;2022-10-17T08:31:53;7.70;;;5.65;;
71965;SDS011;59836;52.132;5.442;2022-10-17T08:34:30;9.20;;;5.30;;
71965;SDS011;59836;52.132;5.442;2022-10-17T08:37:11;10.00;;;5.50;;
71965;SDS011;59836;52.132;5.442;2022-10-17T08:39:43;8.35;;;4.82;;
71965;SDS011;59836;52.132;5.442;2022-10-17T08:45:14;11.32;;;5.30;;
71965;SDS011;59836;52.132;5.442;2022-10-17T08:47:59;6.47;;;5.13;;
71965;SDS011;59836;52.132;5.442;2022-10-17T08:50:29;7.10;;;5.07;;
71965;SDS011;59836;52.132;5.442;2022-10-17T08:53:12;6.72;;;5.15;;
71965;SDS011;59836;52.132;5.442;2022-10-17T08:55:45;7.32;;;5.22;;
71965;SDS011;59836;52.132;5.442;2022-10-17T08:58:16;7.32;;;4.97;;
71965;SDS011;59836;52.132;5.442;2022-10-17T09:06:23;8.82;;;5.43;;
71965;SDS011;59836;52.132;5.442;2022-10-17T09:09:04;8.18;;;5.15;;
71965;SDS011;59836;52.132;5.442;2022-10-17T09:16:55;8.40;;;5.28;;
71965;SDS011;59836;52.132;5.442;2022-10-17T09:19:31;7.97;;;5.00;;
71965;SDS011;59836;52.132;5.442;2022-10-17T09:22:02;7.15;;;5.18;;
71965;SDS011;59836;52.132;5.442;2022-10-17T09:27:26;27.10;;;18.87;;
71965;SDS011;59836;52.132;5.442;2022-10-17T09:30:14;35.03;;;26.17;;
71965;SDS011;59836;52.132;5.442;2022-10-17T09:33:08;38.03;;;28.20;;
71965;SDS011;59836;52.132;5.442;2022-10-17T09:35:57;29.23;;;21.17;;
71965;SDS011;59836;52.132;5.442;2022-10-17T09:38:27;19.85;;;14.63;;
71965;SDS011;59836;52.132;5.442;2022-10-17T09:41:01;13.67;;;11.43;;
71965;SDS011;59836;52.132;5.442;2022-10-17T09:43:28;15.50;;;11.18;;
71965;SDS011;59836;52.132;5.442;2022-10-17T09:46:11;18.20;;;9.57;;
71965;SDS011;59836;52.132;5.442;2022-10-17T09:48:47;10.48;;;6.57;;
71965;SDS011;59836;52.132;5.442;2022-10-17T09:51:19;8.25;;;6.13;;
71965;SDS011;59836;52.132;5.442;2022-10-17T09:53:54;10.27;;;6.47;;
71965;SDS011;59836;52.132;5.442;2022-10-17T09:56:24;8.57;;;6.78;;
71965;SDS011;59836;52.132;5.442;2022-10-17T09:58:52;8.10;;;5.88;;
71965;SDS011;59836;52.132;5.442;2022-10-17T10:01:23;9.10;;;6.03;;
71965;SDS011;59836;52.132;5.442;2022-10-17T10:04:08;8.82;;;6.18;;
71965;SDS011;59836;52.132;5.442;2022-10-17T10:06:37;17.97;;;10.47;;
71965;SDS011;59836;52.132;5.442;2022-10-17T10:09:04;57.17;;;25.33;;
71965;SDS011;59836;52.132;5.442;2022-10-17T10:14:23;52.50;;;23.55;;
71965;SDS011;59836;52.132;5.442;2022-10-17T10:16:54;34.80;;;18.33;;
71965;SDS011;59836;52.132;5.442;2022-10-17T10:19:27;30.03;;;16.20;;
71965;SDS011;59836;52.132;5.442;2022-10-17T10:22:00;16.20;;;11.23;;
71965;SDS011;59836;52.132;5.442;2022-10-17T10:24:28;19.92;;;11.70;;
71965;SDS011;59836;52.132;5.442;2022-10-17T10:26:57;14.02;;;8.90;;
71965;SDS011;59836;52.132;5.442;2022-10-17T10:34:55;9.63;;;7.20;;
71965;SDS011;59836;52.132;5.442;2022-10-17T10:37:45;12.02;;;7.07;;
71965;SDS011;59836;52.132;5.442;2022-10-17T10:43:04;13.43;;;9.88;;
71965;SDS011;59836;52.132;5.442;2022-10-17T10:48:21;11.38;;;7.88;;
71965;SDS011;59836;52.132;5.442;2022-10-17T10:56:13;14.73;;;9.48;;
71965;SDS011;59836;52.132;5.442;2022-10-17T11:02:09;9.63;;;5.70;;
71965;SDS011;59836;52.132;5.442;2022-10-17T11:04:54;9.07;;;6.43;;
71965;SDS011;59836;52.132;5.442;2022-10-17T11:10:46;7.55;;;6.00;;
71965;SDS011;59836;52.132;5.442;2022-10-17T11:13:40;7.50;;;6.03;;
71965;SDS011;59836;52.132;5.442;2022-10-17T11:16:36;5.85;;;4.43;;
71965;SDS011;59836;52.132;5.442;2022-10-17T11:22:14;6.68;;;4.90;;
71965;SDS011;59836;52.132;5.442;2022-10-17T11:27:47;8.23;;;5.53;;
71965;SDS011;59836;52.132;5.442;2022-10-17T11:30:14;9.18;;;6.55;;
71965;SDS011;59836;52.132;5.442;2022-10-17T11:32:43;9.95;;;6.55;;
71965;SDS011;59836;52.132;5.442;2022-10-17T11:35:16;9.80;;;6.78;;
71965;SDS011;59836;52.132;5.442;2022-10-17T11:37:57;7.70;;;6.13;;
71965;SDS011;59836;52.132;5.442;2022-10-17T11:40:34;7.73;;;5.90;;
71965;SDS011;59836;52.132;5.442;2022-10-17T11:43:17;8.65;;;6.32;;
71965;SDS011;59836;52.132;5.442;2022-10-17T11:45:50;8.18;;;6.13;;
71965;SDS011;59836;52.132;5.442;2022-10-17T11:48:22;8.43;;;5.18;;
71965;SDS011;59836;52.132;5.442;2022-10-17T11:53:58;7.77;;;5.20;;
71965;SDS011;59836;52.132;5.442;2022-10-17T12:08:45;7.70;;;5.50;;
71965;SDS011;59836;52.132;5.442;2022-10-17T12:26:08;12.40;;;6.80;;
71965;SDS011;59836;52.132;5.442;2022-10-17T12:28:44;9.00;;;5.45;;
71965;SDS011;59836;52.132;5.442;2022-10-17T12:33:50;9.85;;;4.60;;
71965;SDS011;59836;52.132;5.442;2022-10-17T12:49:46;8.90;;;6.13;;
71965;SDS011;59836;52.132;5.442;2022-10-17T12:52:21;10.20;;;5.90;;
71965;SDS011;59836;52.132;5.442;2022-10-17T12:54:56;8.15;;;5.80;;
71965;SDS011;59836;52.132;5.442;2022-10-17T13:01:02;8.05;;;5.78;;
71965;SDS011;59836;52.132;5.442;2022-10-17T13:03:39;7.00;;;5.53;;
71965;SDS011;59836;52.132;5.442;2022-10-17T13:06:19;6.93;;;5.05;;
71965;SDS011;59836;52.132;5.442;2022-10-17T13:14:50;9.73;;;6.28;;
71965;SDS011;59836;52.132;5.442;2022-10-17T13:17:24;9.20;;;6.07;;
71965;SDS011;59836;52.132;5.442;2022-10-17T13:20:01;9.90;;;6.07;;
71965;SDS011;59836;52.132;5.442;2022-10-17T13:22:29;9.85;;;6.07;;
71965;SDS011;59836;52.132;5.442;2022-10-17T13:25:08;8.27;;;6.72;;
71965;SDS011;59836;52.132;5.442;2022-10-17T13:31:50;7.97;;;6.03;;
71965;SDS011;59836;52.132;5.442;2022-10-17T13:37:07;6.68;;;5.75;;
71965;SDS011;59836;52.132;5.442;2022-10-17T13:39:39;7.00;;;5.90;;
71965;SDS011;59836;52.132;5.442;2022-10-17T13:42:23;7.70;;;6.60;;
71965;SDS011;59836;52.132;5.442;2022-10-17T13:44:52;9.47;;;6.97;;
71965;SDS011;59836;52.132;5.442;2022-10-17T13:47:23;12.00;;;8.00;;
71965;SDS011;59836;52.132;5.442;2022-10-17T13:56:01;8.35;;;6.25;;
71965;SDS011;59836;52.132;5.442;2022-10-17T13:58:56;9.70;;;6.03;;
71965;SDS011;59836;52.132;5.442;2022-10-17T14:01:26;8.95;;;5.88;;
71965;SDS011;59836;52.132;5.442;2022-10-17T14:03:54;7.35;;;5.63;;
71965;SDS011;59836;52.132;5.442;2022-10-17T14:06:33;8.25;;;5.70;;
71965;SDS011;59836;52.132;5.442;2022-10-17T14:09:22;10.45;;;6.20;;
71965;SDS011;59836;52.132;5.442;2022-10-17T14:12:05;6.90;;;5.73;;
71965;SDS011;59836;52.132;5.442;2022-10-17T14:14:37;7.53;;;5.55;;
71965;SDS011;59836;52.132;5.442;2022-10-17T14:17:26;8.77;;;6.10;;
71965;SDS011;59836;52.132;5.442;2022-10-17T14:19:56;7.32;;;6.50;;
71965;SDS011;59836;52.132;5.442;2022-10-17T14:22:48;7.38;;;5.93;;
71965;SDS011;59836;52.132;5.442;2022-10-17T14:25:36;7.50;;;5.50;;
71965;SDS011;59836;52.132;5.442;2022-10-17T14:30:45;6.55;;;5.07;;
71965;SDS011;59836;52.132;5.442;2022-10-17T14:33:24;6.40;;;5.40;;
71965;SDS011;59836;52.132;5.442;2022-10-17T14:35:53;8.00;;;5.90;;
71965;SDS011;59836;52.132;5.442;2022-10-17T14:38:21;10.57;;;6.10;;
71965;SDS011;59836;52.132;5.442;2022-10-17T14:40:57;8.93;;;5.85;;
71965;SDS011;59836;52.132;5.442;2022-10-17T14:43:50;8.68;;;5.25;;
71965;SDS011;59836;52.132;5.442;2022-10-17T14:46:22;7.68;;;5.45;;
71965;SDS011;59836;52.132;5.442;2022-10-17T14:48:52;8.60;;;4.90;;
71965;SDS011;59836;52.132;5.442;2022-10-17T14:51:21;9.23;;;5.53;;
71965;SDS011;59836;52.132;5.442;2022-10-17T14:54:01;7.85;;;5.25;;
71965;SDS011;59836;52.132;5.442;2022-10-17T14:57:14;10.05;;;5.40;;
71965;SDS011;59836;52.132;5.442;2022-10-17T14:59:21;7.80;;;5.40;;
71965;SDS011;59836;52.132;5.442;2022-10-17T15:02:09;7.43;;;5.05;;
71965;SDS011;59836;52.132;5.442;2022-10-17T15:04:38;6.77;;;5.03;;
71965;SDS011;59836;52.132;5.442;2022-10-17T15:07:20;7.07;;;4.68;;
71965;SDS011;59836;52.132;5.442;2022-10-17T15:09:47;7.15;;;5.55;;
71965;SDS011;59836;52.132;5.442;2022-10-17T15:12:19;7.00;;;5.38;;
71965;SDS011;59836;52.132;5.442;2022-10-17T15:14:47;7.05;;;4.97;;
71965;SDS011;59836;52.132;5.442;2022-10-17T15:24:05;9.32;;;6.75;;
71965;SDS011;59836;52.132;5.442;2022-10-17T15:29:58;8.15;;;5.47;;
71965;SDS011;59836;52.132;5.442;2022-10-17T15:32:26;8.73;;;6.00;;
71965;SDS011;59836;52.132;5.442;2022-10-17T15:34:53;10.15;;;5.88;;
71965;SDS011;59836;52.132;5.442;2022-10-17T15:37:23;11.65;;;6.30;;
71965;SDS011;59836;52.132;5.442;2022-10-17T15:39:51;10.90;;;6.38;;
71965;SDS011;59836;52.132;5.442;2022-10-17T15:42:21;8.68;;;5.97;;
71965;SDS011;59836;52.132;5.442;2022-10-17T15:44:54;10.70;;;6.80;;
71965;SDS011;59836;52.132;5.442;2022-10-17T15:47:23;7.75;;;5.65;;
71965;SDS011;59836;52.132;5.442;2022-10-17T15:49:56;12.30;;;6.38;;
71965;SDS011;59836;52.132;5.442;2022-10-17T15:52:22;6.60;;;5.15;;
71965;SDS011;59836;52.132;5.442;2022-10-17T15:54:49;7.57;;;5.72;;
71965;SDS011;59836;52.132;5.442;2022-10-17T15:57:35;8.20;;;5.17;;
71965;SDS011;59836;52.132;5.442;2022-10-17T16:00:04;8.07;;;6.30;;
71965;SDS011;59836;52.132;5.442;2022-10-17T16:02:48;7.20;;;5.07;;
71965;SDS011;59836;52.132;5.442;2022-10-17T16:05:29;7.22;;;5.97;;
71965;SDS011;59836;52.132;5.442;2022-10-17T16:07:55;12.25;;;7.07;;
71965;SDS011;59836;52.132;5.442;2022-10-17T16:10:31;9.70;;;6.50;;
71965;SDS011;59836;52.132;5.442;2022-10-17T16:13:11;8.65;;;6.22;;
71965;SDS011;59836;52.132;5.442;2022-10-17T16:15:42;8.65;;;5.65;;
71965;SDS011;59836;52.132;5.442;2022-10-17T16:18:09;6.57;;;5.03;;
71965;SDS011;59836;52.132;5.442;2022-10-17T16:20:35;7.60;;;5.65;;
71965;SDS011;59836;52.132;5.442;2022-10-17T16:23:03;5.80;;;5.07;;
71965;SDS011;59836;52.132;5.442;2022-10-17T16:25:30;5.80;;;4.43;;
71965;SDS011;59836;52.132;5.442;2022-10-17T16:28:06;7.20;;;4.88;;
71965;SDS011;59836;52.132;5.442;2022-10-17T16:30:48;5.45;;;4.55;;
71965;SDS011;59836;52.132;5.442;2022-10-17T16:33:20;5.13;;;4.53;;
71965;SDS011;59836;52.132;5.442;2022-10-17T16:35:54;5.97;;;4.20;;
71965;SDS011;59836;52.132;5.442;2022-10-17T16:38:26;6.07;;;4.50;;
71965;SDS011;59836;52.132;5.442;2022-10-17T16:40:53;9.68;;;4.68;;
71965;SDS011;59836;52.132;5.442;2022-10-17T16:46:24;5.75;;;4.68;;
71965;SDS011;59836;52.132;5.442;2022-10-17T16:48:56;7.13;;;5.10;;
71965;SDS011;59836;52.132;5.442;2022-10-17T16:51:29;13.55;;;5.10;;
71965;SDS011;59836;52.132;5.442;2022-10-17T16:56:58;6.43;;;4.13;;
71965;SDS011;59836;52.132;5.442;2022-10-17T16:59:28;5.90;;;4.80;;
71965;SDS011;59836;52.132;5.442;2022-10-17T17:02:01;11.77;;;6.07;;
71965;SDS011;59836;52.132;5.442;2022-10-17T17:04:38;7.70;;;4.97;;
71965;SDS011;59836;52.132;5.442;2022-10-17T17:07:10;7.63;;;4.97;;
71965;SDS011;59836;52.132;5.442;2022-10-17T17:09:37;8.60;;;5.88;;
71965;SDS011;59836;52.132;5.442;2022-10-17T17:12:04;7.93;;;5.18;;
71965;SDS011;59836;52.132;5.442;2022-10-17T17:14:41;7.07;;;5.23;;
71965;SDS011;59836;52.132;5.442;2022-10-17T17:20:30;8.52;;;4.57;;
71965;SDS011;59836;52.132;5.442;2022-10-17T17:22:57;6.57;;;4.60;;
71965;SDS011;59836;52.132;5.442;2022-10-17T17:25:25;8.95;;;5.20;;
71965;SDS011;59836;52.132;5.442;2022-10-17T17:28:00;8.47;;;4.40;;
71965;SDS011;59836;52.132;5.442;2022-10-17T17:30:28;7.35;;;4.43;;
71965;SDS011;59836;52.132;5.442;2022-10-17T17:33:00;6.57;;;4.95;;
71965;SDS011;59836;52.132;5.442;2022-10-17T17:35:33;9.13;;;5.50;;
71965;SDS011;59836;52.132;5.442;2022-10-17T17:38:05;11.25;;;8.15;;
71965;SDS011;59836;52.132;5.442;2022-10-17T17:40:32;13.90;;;10.87;;
71965;SDS011;59836;52.132;5.442;2022-10-17T17:43:05;15.05;;;11.93;;
71965;SDS011;59836;52.132;5.442;2022-10-17T17:45:33;18.50;;;11.23;;
71965;SDS011;59836;52.132;5.442;2022-10-17T17:50:45;17.33;;;10.27;;
71965;SDS011;59836;52.132;5.442;2022-10-17T17:53:12;13.90;;;9.07;;
71965;SDS011;59836;52.132;5.442;2022-10-17T17:58:12;13.60;;;8.25;;
71965;SDS011;59836;52.132;5.442;2022-10-17T18:00:39;15.05;;;9.82;;
71965;SDS011;59836;52.132;5.442;2022-10-17T18:03:05;16.80;;;10.70;;
71965;SDS011;59836;52.132;5.442;2022-10-17T18:05:44;18.63;;;9.57;;
71965;SDS011;59836;52.132;5.442;2022-10-17T18:08:11;14.75;;;8.07;;
71965;SDS011;59836;52.132;5.442;2022-10-17T18:10:37;12.23;;;7.57;;
71965;SDS011;59836;52.132;5.442;2022-10-17T18:13:10;9.05;;;6.68;;
71965;SDS011;59836;52.132;5.442;2022-10-17T18:15:39;7.63;;;6.40;;
71965;SDS011;59836;52.132;5.442;2022-10-17T18:18:06;9.93;;;5.97;;
71965;SDS011;59836;52.132;5.442;2022-10-17T18:20:32;12.85;;;8.23;;
71965;SDS011;59836;52.132;5.442;2022-10-17T18:25:56;13.63;;;8.73;;
71965;SDS011;59836;52.132;5.442;2022-10-17T18:28:26;13.35;;;7.93;;
71965;SDS011;59836;52.132;5.442;2022-10-17T18:30:52;10.80;;;6.67;;
71965;SDS011;59836;52.132;5.442;2022-10-17T18:39:04;16.63;;;10.25;;
71965;SDS011;59836;52.132;5.442;2022-10-17T18:41:38;16.65;;;9.45;;
71965;SDS011;59836;52.132;5.442;2022-10-17T18:47:13;15.63;;;10.02;;
71965;SDS011;59836;52.132;5.442;2022-10-17T18:49:39;18.25;;;11.45;;
71965;SDS011;59836;52.132;5.442;2022-10-17T18:52:06;19.02;;;11.10;;
71965;SDS011;59836;52.132;5.442;2022-10-17T18:54:38;17.80;;;11.10;;
71965;SDS011;59836;52.132;5.442;2022-10-17T18:57:05;14.60;;;9.10;;
71965;SDS011;59836;52.132;5.442;2022-10-17T18:59:32;16.75;;;9.10;;
71965;SDS011;59836;52.132;5.442;2022-10-17T19:02:03;16.92;;;8.73;;
71965;SDS011;59836;52.132;5.442;2022-10-17T19:04:30;13.82;;;8.35;;
71965;SDS011;59836;52.132;5.442;2022-10-17T19:09:40;13.17;;;8.87;;
71965;SDS011;59836;52.132;5.442;2022-10-17T19:12:07;14.40;;;8.50;;